Commerce, Michigan
Current Conditions -  °F | °C
As of 3:53 PM on Tuesday 21 Oct 2014 (Local Time) from KPTK Reporting Station
Overcast Overcast  
Wind Chill: 37°   Ceiling: 1700
Heat Index: 44°   Visibility: 10mi
Dew Point: 36°   Wind: 16mph
Humidity: 73%   Direction: 350°N
Pressure: 30.08"   Gusts: 22mph
Location:  42.5503°N, 83.474°W
Report Text: KPTK 211953Z 35014G19KT 10SM BKN017 OVC023 07/02 A3008 RMK AO2 SLP191 T00670022
Loading
Personal Weather Stations






























Interactive Weather Map
Tropical Storm Tracking
New forecast layout! Learn more

10-Day Weather Forecast

Advertisements
Track Severe Weather on mobile